createdAt,value
2023-01-19T00:00:54.502Z,38.70
2023-01-19T00:03:28.062Z,42.30
2023-01-19T00:05:55.384Z,40.60
2023-01-19T00:08:22.616Z,37.90
2023-01-19T00:10:53.199Z,37.60
2023-01-19T00:13:20.613Z,47.20
2023-01-19T00:15:47.852Z,36.40
2023-01-19T00:18:15.114Z,38.50
2023-01-19T00:20:42.804Z,42.70
2023-01-19T00:23:09.978Z,49.80
2023-01-19T00:25:42.811Z,42.00
2023-01-19T00:28:11.631Z,43.20
2023-01-19T00:30:40.050Z,34.90
2023-01-19T00:33:07.257Z,33.80
2023-01-19T00:35:35.679Z,34.90
2023-01-19T00:38:03.454Z,36.80
2023-01-19T00:40:30.655Z,42.30
2023-01-19T00:42:58.330Z,39.30
2023-01-19T00:45:25.983Z,38.50
2023-01-19T00:47:57.402Z,40.30
2023-01-19T00:50:26.731Z,40.90
2023-01-19T00:52:55.682Z,41.30
2023-01-19T00:55:23.673Z,42.10
2023-01-19T00:57:51.036Z,37.90
2023-01-19T01:00:20.422Z,41.30
2023-01-19T01:02:49.455Z,40.50
2023-01-19T01:05:17.523Z,36.50
2023-01-19T01:07:45.490Z,41.40
2023-01-19T01:10:22.310Z,43.00
2023-01-19T01:13:05.031Z,80.00
2023-01-19T01:15:37.232Z,45.30
2023-01-19T01:18:04.381Z,44.40
2023-01-19T01:20:33.770Z,37.90
2023-01-19T01:23:01.327Z,37.50
2023-01-19T01:25:31.108Z,36.10
2023-01-19T01:27:58.382Z,38.20
2023-01-19T01:30:25.558Z,41.20
2023-01-19T01:32:52.715Z,41.70
2023-01-19T01:35:19.858Z,39.80
2023-01-19T01:37:47.035Z,45.50
2023-01-19T01:40:17.055Z,44.40
2023-01-19T01:42:44.673Z,53.30
2023-01-19T01:45:34.968Z,40.30
2023-01-19T01:48:10.792Z,39.00
2023-01-19T01:51:03.181Z,46.80
2023-01-19T01:53:32.946Z,54.60
2023-01-19T01:56:04.392Z,51.70
2023-01-19T01:58:34.029Z,42.30
2023-01-19T02:01:20.199Z,48.10
2023-01-19T02:03:47.507Z,41.10
2023-01-19T02:06:15.065Z,50.80
2023-01-19T02:09:21.160Z,52.90
2023-01-19T02:12:07.044Z,45.10
2023-01-19T02:14:39.058Z,46.90
2023-01-19T02:17:07.127Z,44.60
2023-01-19T02:19:41.240Z,42.60
2023-01-19T02:22:12.206Z,45.50
2023-01-19T02:24:39.486Z,45.10
2023-01-19T02:27:07.970Z,45.40
2023-01-19T02:29:35.682Z,43.20
2023-01-19T02:32:03.292Z,43.40
2023-01-19T02:34:30.826Z,42.90
2023-01-19T02:36:59.446Z,42.10
2023-01-19T02:39:42.164Z,41.40
2023-01-19T02:42:21.669Z,38.50
2023-01-19T02:44:51.890Z,36.20
2023-01-19T02:47:19.955Z,38.50
2023-01-19T02:50:01.323Z,35.50
2023-01-19T02:52:28.835Z,35.60
2023-01-19T02:55:13.093Z,38.30
2023-01-19T02:57:43.821Z,38.80
2023-01-19T03:00:25.796Z,35.30
2023-01-19T03:03:25.708Z,38.60
2023-01-19T03:06:11.906Z,38.00
2023-01-19T03:09:00.871Z,36.40
2023-01-19T03:11:33.650Z,36.20
2023-01-19T03:14:09.073Z,34.70
2023-01-19T03:16:42.152Z,29.00
2023-01-19T03:19:32.683Z,32.20
2023-01-19T03:22:07.488Z,32.90
2023-01-19T03:24:38.684Z,32.40
2023-01-19T03:27:13.412Z,37.60
2023-01-19T03:29:47.282Z,36.50
2023-01-19T03:32:18.065Z,35.50
2023-01-19T03:34:49.736Z,54.80
2023-01-19T03:37:19.933Z,52.20
2023-01-19T03:39:47.324Z,44.30
2023-01-19T03:42:17.689Z,39.70
2023-01-19T03:44:46.727Z,38.00
2023-01-19T03:47:15.117Z,37.60
2023-01-19T03:49:45.392Z,34.50
2023-01-19T03:52:13.026Z,34.70
2023-01-19T03:54:41.181Z,33.50
2023-01-19T03:57:08.581Z,33.70
2023-01-19T03:59:36.494Z,38.10
2023-01-19T04:02:03.680Z,35.50
2023-01-19T04:04:30.842Z,37.70
2023-01-19T04:06:58.008Z,35.10
2023-01-19T04:09:25.849Z,36.60
2023-01-19T04:11:53.072Z,38.00
2023-01-19T04:14:20.279Z,39.60
2023-01-19T04:16:47.475Z,36.70
2023-01-19T04:19:14.812Z,35.50
2023-01-19T04:21:41.940Z,33.90
2023-01-19T04:24:10.715Z,33.10
2023-01-19T04:26:37.869Z,32.40
2023-01-19T04:29:05.669Z,33.90
2023-01-19T04:31:33.184Z,34.70
2023-01-19T04:34:00.321Z,34.20
2023-01-19T04:36:28.383Z,35.00
2023-01-19T04:38:55.570Z,37.80
2023-01-19T04:41:22.769Z,37.40
2023-01-19T04:43:50.006Z,38.40
2023-01-19T04:46:17.214Z,38.30
2023-01-19T04:48:44.480Z,38.20
2023-01-19T04:51:11.925Z,36.10
2023-01-19T04:53:39.168Z,31.90
2023-01-19T04:56:06.425Z,33.30
2023-01-19T04:58:33.750Z,34.70
2023-01-19T05:01:00.953Z,43.40
2023-01-19T05:03:28.179Z,50.00
2023-01-19T05:05:55.537Z,45.10
2023-01-19T05:08:22.759Z,43.80
2023-01-19T05:10:50.271Z,69.30
2023-01-19T05:13:17.468Z,49.40
2023-01-19T05:15:44.776Z,34.70
2023-01-19T05:18:11.999Z,34.60
2023-01-19T05:20:40.256Z,54.60
2023-01-19T05:23:07.519Z,48.70
2023-01-19T05:25:34.736Z,42.00
2023-01-19T05:28:03.016Z,37.70
2023-01-19T05:30:30.211Z,34.00
2023-01-19T05:32:57.363Z,35.50
2023-01-19T05:35:35.371Z,39.00
2023-01-19T05:38:03.777Z,56.50
2023-01-19T05:40:31.001Z,51.10
2023-01-19T05:43:01.365Z,61.40
2023-01-19T05:45:28.830Z,57.90
2023-01-19T05:47:56.136Z,51.10
2023-01-19T05:50:23.505Z,38.30
2023-01-19T05:52:53.291Z,57.50
2023-01-19T05:55:21.771Z,36.50
2023-01-19T05:57:49.230Z,33.50
2023-01-19T06:00:17.326Z,34.50
2023-01-19T06:02:44.860Z,34.60
2023-01-19T06:05:12.213Z,39.90
2023-01-19T06:07:39.451Z,34.80
2023-01-19T06:10:07.330Z,33.50
2023-01-19T06:12:34.878Z,32.30
2023-01-19T06:15:02.152Z,32.10
2023-01-19T06:17:29.308Z,35.00
2023-01-19T06:19:56.496Z,42.90
2023-01-19T06:22:23.654Z,43.20
2023-01-19T06:24:51.256Z,37.60
2023-01-19T06:27:18.457Z,30.70
2023-01-19T06:29:45.645Z,34.50
2023-01-19T06:32:12.841Z,40.90
2023-01-19T06:34:43.775Z,28.60
2023-01-19T06:37:14.048Z,57.80
2023-01-19T06:39:41.259Z,80.50
2023-01-19T06:42:08.698Z,94.90
2023-01-19T06:44:35.897Z,78.50
2023-01-19T06:47:14.547Z,83.40
2023-01-19T06:49:43.727Z,47.80
2023-01-19T06:52:11.752Z,90.40
2023-01-19T06:54:38.975Z,76.30
2023-01-19T06:57:06.131Z,67.80
2023-01-19T06:59:33.303Z,63.10
2023-01-19T07:02:00.643Z,68.70
2023-01-19T07:04:47.665Z,50.80
2023-01-19T07:07:16.684Z,57.60
2023-01-19T07:09:43.845Z,48.20
2023-01-19T07:12:11.045Z,50.50
2023-01-19T07:14:38.068Z,53.90
2023-01-19T07:17:05.197Z,49.80
2023-01-19T07:19:32.753Z,58.40
2023-01-19T07:22:00.007Z,57.90
2023-01-19T07:24:27.210Z,146.60
2023-01-19T07:26:54.359Z,125.40
2023-01-19T07:29:21.536Z,70.60
2023-01-19T07:31:49.683Z,75.90
2023-01-19T07:34:17.044Z,59.30
2023-01-19T07:36:44.450Z,59.80
2023-01-19T07:39:11.629Z,56.30
2023-01-19T07:41:39.003Z,58.00
2023-01-19T07:44:06.975Z,77.50
2023-01-19T07:46:34.176Z,80.40
2023-01-19T07:49:01.327Z,53.90
2023-01-19T07:51:28.507Z,54.30
2023-01-19T07:53:55.631Z,58.00
2023-01-19T07:56:24.365Z,60.10
2023-01-19T07:58:52.638Z,84.70
2023-01-19T08:01:20.094Z,63.10
2023-01-19T08:03:50.986Z,67.40
2023-01-19T08:06:24.009Z,73.20
2023-01-19T08:08:51.306Z,63.20
2023-01-19T08:11:18.350Z,57.70
2023-01-19T08:13:45.539Z,78.30
2023-01-19T08:16:12.764Z,59.20
2023-01-19T08:18:39.963Z,66.40
2023-01-19T08:21:07.298Z,50.80
2023-01-19T08:23:34.547Z,57.70
2023-01-19T08:26:01.768Z,62.40
2023-01-19T08:28:29.061Z,68.40
2023-01-19T08:30:56.347Z,57.70
2023-01-19T08:33:25.421Z,90.10
2023-01-19T08:35:53.834Z,83.70
2023-01-19T08:38:21.032Z,82.00
2023-01-19T08:40:49.215Z,67.70
2023-01-19T08:43:17.661Z,75.50
2023-01-19T08:45:52.262Z,74.20
2023-01-19T08:48:22.542Z,68.00
2023-01-19T08:50:51.539Z,74.20
2023-01-19T08:53:21.184Z,74.70
2023-01-19T08:55:48.362Z,68.50
2023-01-19T08:58:15.694Z,72.90
2023-01-19T09:00:42.819Z,80.90
2023-01-19T09:03:13.874Z,73.60
2023-01-19T09:05:41.117Z,75.30
2023-01-19T09:08:11.227Z,67.60
2023-01-19T09:10:39.742Z,73.90
2023-01-19T09:13:10.971Z,67.90
2023-01-19T09:15:39.993Z,75.50
2023-01-19T09:18:14.146Z,78.60
2023-01-19T09:20:45.299Z,70.90
2023-01-19T09:23:14.640Z,74.40
2023-01-19T09:25:44.072Z,151.60
2023-01-19T09:28:14.709Z,194.40
2023-01-19T09:30:43.458Z,113.80
2023-01-19T09:33:13.202Z,92.80
2023-01-19T09:35:41.939Z,101.40
2023-01-19T09:38:10.696Z,103.70
2023-01-19T09:40:43.236Z,95.70
2023-01-19T09:43:13.051Z,77.70
2023-01-19T09:45:48.769Z,65.00
2023-01-19T09:48:51.944Z,63.20
2023-01-19T09:51:24.192Z,76.90
2023-01-19T09:53:55.781Z,85.50
2023-01-19T09:56:24.067Z,78.80
2023-01-19T09:58:52.391Z,113.10
2023-01-19T10:01:38.504Z,100.10
2023-01-19T10:04:21.384Z,76.30
2023-01-19T10:06:49.764Z,63.60
2023-01-19T10:09:35.306Z,62.60
2023-01-19T10:12:12.944Z,71.10
2023-01-19T10:14:51.026Z,65.20
2023-01-19T10:17:40.243Z,65.10
2023-01-19T10:20:18.075Z,72.00
2023-01-19T10:22:49.053Z,81.50
2023-01-19T10:25:23.874Z,82.50
2023-01-19T10:27:51.879Z,83.30
2023-01-19T10:30:25.860Z,86.30
2023-01-19T10:32:53.564Z,74.50
2023-01-19T10:35:27.160Z,64.50
2023-01-19T10:37:58.566Z,45.40
2023-01-19T10:40:33.460Z,52.50
2023-01-19T10:43:01.221Z,51.80
2023-01-19T10:45:31.636Z,45.20
2023-01-19T10:48:06.655Z,52.70
2023-01-19T10:50:37.364Z,68.00
2023-01-19T10:53:06.548Z,60.60
2023-01-19T10:55:38.864Z,59.10
2023-01-19T10:58:30.205Z,63.20
2023-01-19T11:01:14.077Z,60.90
2023-01-19T11:03:41.390Z,67.10
2023-01-19T11:06:15.603Z,57.70
2023-01-19T11:08:44.612Z,54.50
2023-01-19T11:11:13.415Z,48.90
2023-01-19T11:13:42.345Z,51.10
2023-01-19T11:16:29.426Z,47.20
2023-01-19T11:18:57.993Z,62.40
2023-01-19T11:21:28.158Z,69.50
2023-01-19T11:23:58.586Z,69.60
2023-01-19T11:26:43.354Z,58.10
2023-01-19T11:29:19.330Z,59.50
2023-01-19T11:31:46.799Z,59.80
2023-01-19T11:34:31.420Z,61.10
2023-01-19T11:37:04.009Z,59.40
2023-01-19T11:39:45.058Z,60.80
2023-01-19T11:42:13.582Z,70.10
2023-01-19T11:44:48.132Z,59.30
2023-01-19T11:47:27.367Z,58.10
2023-01-19T11:49:57.381Z,64.70
2023-01-19T11:52:32.403Z,72.90
2023-01-19T11:55:22.563Z,78.30
2023-01-19T11:57:54.711Z,81.10
2023-01-19T12:00:24.848Z,89.50
2023-01-19T12:02:59.619Z,75.60
2023-01-19T12:05:32.435Z,61.80
2023-01-19T12:08:05.456Z,49.60
2023-01-19T12:10:38.538Z,46.40
2023-01-19T12:13:05.650Z,56.90
2023-01-19T12:15:43.181Z,50.60
2023-01-19T12:18:21.186Z,43.20
2023-01-19T12:20:52.154Z,44.20
2023-01-19T12:23:44.660Z,49.20
2023-01-19T12:26:21.987Z,48.30
2023-01-19T12:28:52.341Z,44.90
2023-01-19T12:31:22.780Z,47.80
2023-01-19T12:33:50.838Z,46.60
2023-01-19T12:36:30.378Z,46.10
2023-01-19T12:39:05.708Z,53.30
2023-01-19T12:41:37.133Z,46.30
2023-01-19T12:44:10.505Z,42.50
2023-01-19T12:46:53.132Z,44.60
2023-01-19T12:49:31.497Z,46.80
2023-01-19T12:52:14.281Z,44.50
2023-01-19T12:54:49.869Z,47.70
2023-01-19T13:00:06.052Z,47.40
2023-01-19T13:02:44.982Z,61.90
2023-01-19T13:05:32.512Z,60.20
2023-01-19T13:08:03.279Z,56.00
2023-01-19T13:11:10.847Z,56.20
2023-01-19T13:13:46.736Z,48.40
2023-01-19T13:16:20.347Z,43.90
2023-01-19T13:19:07.323Z,40.50
2023-01-19T13:21:44.782Z,46.00
2023-01-19T13:24:15.707Z,39.40
2023-01-19T13:26:55.205Z,44.30
2023-01-19T13:29:30.347Z,46.00
2023-01-19T13:32:03.553Z,52.50
2023-01-19T13:34:42.850Z,43.60
2023-01-19T13:37:18.965Z,43.40
2023-01-19T13:39:50.538Z,48.80
2023-01-19T13:42:30.446Z,54.50
2023-01-19T13:45:05.882Z,50.50
2023-01-19T13:47:48.598Z,44.90
2023-01-19T13:50:25.299Z,44.90
2023-01-19T13:52:54.690Z,44.60
2023-01-19T13:55:23.596Z,45.30
2023-01-19T13:57:51.984Z,43.70
2023-01-19T14:00:21.205Z,45.10
2023-01-19T14:02:57.242Z,44.40
2023-01-19T14:05:26.538Z,46.30
2023-01-19T14:08:21.391Z,40.00
2023-01-19T14:10:54.743Z,39.70
2023-01-19T14:13:23.008Z,40.80
2023-01-19T14:15:54.021Z,47.50
2023-01-19T14:18:24.371Z,48.80
2023-01-19T14:20:58.836Z,50.10
2023-01-19T14:24:06.801Z,54.70
2023-01-19T14:26:51.411Z,51.00
2023-01-19T14:29:32.786Z,44.90
2023-01-19T14:32:14.434Z,41.10
2023-01-19T14:35:06.057Z,43.20
2023-01-19T14:37:38.208Z,50.40
2023-01-19T14:40:10.741Z,87.80
2023-01-19T14:42:49.957Z,75.90
2023-01-19T14:45:22.859Z,60.20
2023-01-19T14:48:02.339Z,66.50
2023-01-19T14:50:33.943Z,62.80
2023-01-19T14:53:04.811Z,55.70
2023-01-19T14:55:54.501Z,62.70
2023-01-19T14:58:24.581Z,67.20
2023-01-19T15:00:55.865Z,61.40
2023-01-19T15:03:32.014Z,52.30
2023-01-19T15:06:15.816Z,45.70
2023-01-19T15:08:43.930Z,46.40
2023-01-19T15:11:32.862Z,46.40
2023-01-19T15:14:01.122Z,44.60
2023-01-19T15:16:31.695Z,46.80
2023-01-19T15:18:58.974Z,45.20
2023-01-19T15:21:29.094Z,46.80
2023-01-19T15:23:58.414Z,41.10
2023-01-19T15:26:27.388Z,41.40
2023-01-19T15:28:56.308Z,43.00
2023-01-19T15:31:25.707Z,45.50
2023-01-19T15:33:52.907Z,45.60
2023-01-19T15:36:21.956Z,58.00
2023-01-19T15:38:51.268Z,57.80
2023-01-19T15:41:26.166Z,61.80
2023-01-19T15:43:53.415Z,57.20
2023-01-19T15:46:21.521Z,64.20
2023-01-19T15:48:52.866Z,115.80
2023-01-19T15:51:22.178Z,94.20
2023-01-19T15:53:50.019Z,80.90
2023-01-19T15:56:23.584Z,81.60
2023-01-19T15:58:51.456Z,72.40
2023-01-19T16:01:21.592Z,54.70
2023-01-19T16:03:49.798Z,50.40
2023-01-19T16:06:18.052Z,53.20
2023-01-19T16:08:45.663Z,65.30
2023-01-19T16:11:15.477Z,54.00
2023-01-19T16:13:46.671Z,57.80
2023-01-19T16:16:19.575Z,47.30
2023-01-19T16:18:46.806Z,51.00
2023-01-19T16:21:14.136Z,44.00
2023-01-19T16:23:41.315Z,55.90
2023-01-19T16:26:31.068Z,70.30
2023-01-19T16:29:08.020Z,90.80
2023-01-19T16:31:36.612Z,180.30
2023-01-19T16:34:03.993Z,139.40
2023-01-19T16:36:33.558Z,115.10
2023-01-19T16:39:03.307Z,88.90
2023-01-19T16:41:30.654Z,62.90
2023-01-19T16:43:58.536Z,58.20
2023-01-19T16:46:28.652Z,67.90
2023-01-19T16:49:00.694Z,70.30
2023-01-19T16:51:27.871Z,68.80
2023-01-19T16:53:55.025Z,58.20
2023-01-19T16:56:22.425Z,47.70
2023-01-19T16:58:54.299Z,47.10
2023-01-19T17:01:22.250Z,47.50
2023-01-19T17:03:49.970Z,46.00
2023-01-19T17:06:20.214Z,45.60
2023-01-19T17:08:47.704Z,48.30
2023-01-19T17:11:23.285Z,55.10
2023-01-19T17:16:22.386Z,53.10
2023-01-19T17:18:49.999Z,59.20
2023-01-19T17:21:17.997Z,49.10
2023-01-19T17:23:47.349Z,52.10
2023-01-19T17:26:16.092Z,52.90
2023-01-19T17:28:43.828Z,46.90
2023-01-19T17:31:17.294Z,46.90
2023-01-19T17:33:46.765Z,50.70
2023-01-19T17:36:17.084Z,51.50
2023-01-19T17:38:44.212Z,47.50
2023-01-19T17:41:24.180Z,45.20
2023-01-19T17:43:52.272Z,40.50
2023-01-19T17:46:21.300Z,39.50
2023-01-19T17:49:00.153Z,40.90
2023-01-19T17:51:28.734Z,46.40
2023-01-19T17:53:56.687Z,42.40
2023-01-19T17:56:29.787Z,39.80
2023-01-19T17:58:58.304Z,38.60
2023-01-19T18:01:28.620Z,40.00
2023-01-19T18:03:57.132Z,43.40
2023-01-19T18:06:24.638Z,42.40
2023-01-19T18:08:52.666Z,45.40
2023-01-19T18:11:20.858Z,56.30
2023-01-19T18:13:49.957Z,46.80
2023-01-19T18:16:21.558Z,44.50
2023-01-19T18:18:49.939Z,44.20
2023-01-19T18:21:17.570Z,45.60
2023-01-19T18:23:45.946Z,47.60
2023-01-19T18:26:16.485Z,46.70
2023-01-19T18:28:43.818Z,58.30
2023-01-19T18:31:13.398Z,42.90
2023-01-19T18:33:41.183Z,37.40
2023-01-19T18:36:09.567Z,38.80
2023-01-19T18:38:38.371Z,36.80
2023-01-19T18:41:06.791Z,54.10
2023-01-19T18:43:34.268Z,91.30
2023-01-19T18:46:01.519Z,50.70
2023-01-19T18:48:28.965Z,40.50
2023-01-19T18:50:56.723Z,38.60
2023-01-19T18:53:24.165Z,36.00
2023-01-19T18:56:04.387Z,36.00
2023-01-19T18:58:33.045Z,36.30
2023-01-19T19:01:01.429Z,39.40
2023-01-19T19:03:29.284Z,38.10
2023-01-19T19:05:56.757Z,36.10
2023-01-19T19:08:23.980Z,32.60
2023-01-19T19:10:51.132Z,33.20
2023-01-19T19:13:20.686Z,33.10
2023-01-19T19:15:47.862Z,34.50
2023-01-19T19:18:16.372Z,36.50
2023-01-19T19:20:43.953Z,38.50
2023-01-19T19:23:11.803Z,34.90
2023-01-19T19:25:39.184Z,36.60
2023-01-19T19:28:06.729Z,39.20
2023-01-19T19:30:35.783Z,39.80
2023-01-19T19:33:03.009Z,45.60
2023-01-19T19:35:30.212Z,52.70
2023-01-19T19:37:57.915Z,46.10
2023-01-19T19:40:27.121Z,46.60
2023-01-19T19:42:56.432Z,43.50
2023-01-19T19:45:25.544Z,48.10
2023-01-19T19:47:52.829Z,39.20
2023-01-19T19:50:20.002Z,38.70
2023-01-19T19:52:47.230Z,34.60
2023-01-19T19:55:14.570Z,38.60
2023-01-19T19:57:41.705Z,33.30
2023-01-19T20:00:09.600Z,33.50
2023-01-19T20:02:37.303Z,33.70
2023-01-19T20:05:05.281Z,30.10
2023-01-19T20:07:32.958Z,35.70
2023-01-19T20:10:00.189Z,34.20
2023-01-19T20:12:27.585Z,32.10
2023-01-19T20:14:54.661Z,27.40
2023-01-19T20:17:23.291Z,29.70
2023-01-19T20:19:50.491Z,29.50
2023-01-19T20:22:17.724Z,27.70
2023-01-19T20:24:45.060Z,30.90
2023-01-19T20:27:12.198Z,35.70
2023-01-19T20:29:39.463Z,31.30
2023-01-19T20:32:06.676Z,33.40
2023-01-19T20:34:35.735Z,30.70
2023-01-19T20:37:04.765Z,29.20
2023-01-19T20:39:34.788Z,30.40
2023-01-19T20:42:02.694Z,31.30
2023-01-19T20:44:30.410Z,25.40
2023-01-19T20:46:57.628Z,25.70
2023-01-19T20:49:25.116Z,23.80
2023-01-19T20:51:52.369Z,22.80
2023-01-19T20:54:22.416Z,26.20
2023-01-19T20:56:49.623Z,33.40
2023-01-19T20:59:17.139Z,36.30
2023-01-19T21:01:45.242Z,35.20
2023-01-19T21:04:12.851Z,33.90
2023-01-19T21:06:41.021Z,33.10
2023-01-19T21:09:10.146Z,27.20
2023-01-19T21:11:38.568Z,25.60
2023-01-19T21:14:06.660Z,24.30
2023-01-19T21:16:35.664Z,23.50
2023-01-19T21:19:04.160Z,22.90
2023-01-19T21:21:32.057Z,22.60
2023-01-19T21:24:04.074Z,25.90
2023-01-19T21:26:31.689Z,32.20
2023-01-19T21:29:00.505Z,37.30
2023-01-19T21:31:28.602Z,41.20
2023-01-19T21:33:59.218Z,34.50
2023-01-19T21:36:27.032Z,34.70
2023-01-19T21:39:00.371Z,157.50
2023-01-19T21:41:30.034Z,250.60
2023-01-19T21:43:58.652Z,308.50
2023-01-19T21:46:29.368Z,618.20
2023-01-19T21:49:02.180Z,460.80
2023-01-19T21:51:33.613Z,190.40
2023-01-19T21:54:03.170Z,206.20
2023-01-19T21:56:31.246Z,114.40
2023-01-19T21:59:03.698Z,127.80
2023-01-19T22:01:32.463Z,82.60
2023-01-19T22:04:00.020Z,66.60
2023-01-19T22:06:28.043Z,43.40
2023-01-19T22:08:57.972Z,38.80
2023-01-19T22:11:25.176Z,36.00
2023-01-19T22:13:53.041Z,40.80
2023-01-19T22:16:21.638Z,44.90
2023-01-19T22:18:54.218Z,52.60
2023-01-19T22:21:23.976Z,44.70
2023-01-19T22:23:53.552Z,38.80
2023-01-19T22:26:21.263Z,37.70
2023-01-19T22:28:49.027Z,36.80
2023-01-19T22:31:18.272Z,42.30
2023-01-19T22:33:46.103Z,43.00
2023-01-19T22:36:26.430Z,41.80
2023-01-19T22:38:56.091Z,41.50
2023-01-19T22:41:30.443Z,39.10
2023-01-19T22:43:59.964Z,39.10
2023-01-19T22:46:30.104Z,40.20
2023-01-19T22:48:57.748Z,43.00
2023-01-19T22:51:26.474Z,39.90
2023-01-19T22:53:53.803Z,39.60
2023-01-19T22:56:29.750Z,43.10
2023-01-19T22:58:57.412Z,44.30
2023-01-19T23:01:27.992Z,98.00
2023-01-19T23:03:56.046Z,53.60
2023-01-19T23:06:26.031Z,50.30
2023-01-19T23:08:56.267Z,61.60
2023-01-19T23:11:26.243Z,63.10
2023-01-19T23:13:53.433Z,80.70
2023-01-19T23:16:21.927Z,58.70
2023-01-19T23:18:53.479Z,92.70
2023-01-19T23:21:22.703Z,83.90
2023-01-19T23:23:53.437Z,50.50
2023-01-19T23:26:21.464Z,47.50
2023-01-19T23:28:52.861Z,44.90
2023-01-19T23:31:23.961Z,49.20
2023-01-19T23:33:56.371Z,62.10
2023-01-19T23:36:25.579Z,55.70
2023-01-19T23:38:55.100Z,53.30
2023-01-19T23:41:23.513Z,51.60
2023-01-19T23:43:50.969Z,54.30
2023-01-19T23:46:19.601Z,51.30
2023-01-19T23:48:47.248Z,68.20
2023-01-19T23:51:17.466Z,60.10
2023-01-19T23:53:45.149Z,57.10
2023-01-19T23:56:15.080Z,50.10
2023-01-19T23:58:42.243Z,52.10
